Time;durP1;ratioP1;P1;durP2;ratioP2;P2;SDS_P1;SDS_P2;PMS_P1;PMS_P2;Temp;Humidity;BMP_temperature;BMP_pressure;BME280_temperature;BME280_humidity;BME280_pressure;Samples;Min_cycle;Max_cycle;Signal;HPM_P1;HPM_P2
2021/01/21 00:03:24;;;;;;;38.65;18.50;;;;;;;;;;10361436;28;20083;-59
2021/01/21 00:08:22;;;;;;;28.15;16.55;;;;;;;;;;10361554;28;20079;-60
2021/01/21 00:13:19;;;;;;;24.50;14.98;;;;;;;;;;10361489;28;20457;-59
2021/01/21 00:18:17;;;;;;;29.90;17.52;;;;;;;;;;10360247;28;20530;-59
2021/01/21 00:23:14;;;;;;;47.92;25.15;;;;;;;;;;10361060;28;20564;-61
2021/01/21 00:28:12;;;;;;;35.15;21.50;;;;;;;;;;10360854;28;20095;-59
2021/01/21 00:33:10;;;;;;;34.85;18.73;;;;;;;;;;10359837;28;20082;-59
2021/01/21 00:38:07;;;;;;;27.02;16.60;;;;;;;;;;10359694;28;20923;-59
2021/01/21 00:43:05;;;;;;;40.55;20.30;;;;;;;;;;10360172;28;20075;-60
2021/01/21 00:48:03;;;;;;;26.88;14.77;;;;;;;;;;10359410;28;20079;-60
2021/01/21 00:53:24;;;;;;;26.45;13.15;;;;;;;;;;10358026;28;20055;-60
2021/01/21 00:58:23;;;;;;;32.70;15.68;;;;;;;;;;10271636;28;20092;-60
2021/01/21 01:03:22;;;;;;;22.88;13.02;;;;;;;;;;10253694;28;20183;-59
2021/01/21 01:08:21;;;;;;;24.80;13.40;;;;;;;;;;10254781;28;20175;-60
2021/01/21 01:13:19;;;;;;;23.73;13.15;;;;;;;;;;10263789;28;20075;-59
2021/01/21 01:18:17;;;;;;;30.92;15.27;;;;;;;;;;10358535;28;20565;-60
2021/01/21 01:23:16;;;;;;;25.60;14.88;;;;;;;;;;10358583;28;20059;-60
2021/01/21 01:28:14;;;;;;;33.67;16.05;;;;;;;;;;10358340;28;20048;-60
2021/01/21 01:33:11;;;;;;;38.28;18.73;;;;;;;;;;10360250;28;20086;-61
2021/01/21 01:38:10;;;;;;;31.70;15.93;;;;;;;;;;10359800;28;20055;-59
2021/01/21 01:43:08;;;;;;;28.13;16.65;;;;;;;;;;10359396;28;20074;-60
2021/01/21 01:48:06;;;;;;;176.40;60.83;;;;;;;;;;10357448;28;20079;-59
2021/01/21 01:53:12;;;;;;;18.20;11.57;;;;;;;;;;10357456;28;20165;-60
2021/01/21 01:58:17;;;;;;;15.00;10.63;;;;;;;;;;10356207;28;20055;-61
2021/01/21 02:03:19;;;;;;;15.20;9.93;;;;;;;;;;10356968;28;20058;-59
2021/01/21 02:08:36;;;;;;;15.80;10.18;;;;;;;;;;10356751;28;20056;-60
2021/01/21 02:13:43;;;;;;;15.32;8.32;;;;;;;;;;10356696;28;20048;-60
2021/01/21 02:18:44;;;;;;;14.38;11.07;;;;;;;;;;10356684;28;20052;-60
2021/01/21 02:24:00;;;;;;;22.08;13.60;;;;;;;;;;10356431;28;20052;-60
2021/01/21 02:29:11;;;;;;;20.35;13.40;;;;;;;;;;10356036;28;20086;-60
2021/01/21 02:34:18;;;;;;;9.23;7.05;;;;;;;;;;10356337;28;20237;-60
2021/01/21 02:39:15;;;;;;;8.45;7.10;;;;;;;;;;10357885;28;20513;-60
2021/01/21 02:44:17;;;;;;;8.88;5.75;;;;;;;;;;10355972;28;20055;-61
2021/01/21 02:49:15;;;;;;;7.25;6.55;;;;;;;;;;10357754;28;20048;-61
2021/01/21 02:54:25;;;;;;;9.43;5.88;;;;;;;;;;10357958;28;20067;-60
2021/01/21 02:59:27;;;;;;;6.95;6.13;;;;;;;;;;10355730;28;20048;-60
2021/01/21 03:04:25;;;;;;;9.43;6.40;;;;;;;;;;10354975;28;20497;-60
2021/01/21 03:09:24;;;;;;;7.97;6.07;;;;;;;;;;10357786;28;20051;-60
2021/01/21 03:14:21;;;;;;;8.32;6.70;;;;;;;;;;10362874;28;20075;-60
2021/01/21 03:19:19;;;;;;;11.07;7.10;;;;;;;;;;10363599;28;20060;-60
2021/01/21 03:24:16;;;;;;;7.47;6.45;;;;;;;;;;10363371;28;20076;-61
2021/01/21 03:29:28;;;;;;;8.20;6.53;;;;;;;;;;10362561;28;20087;-60
2021/01/21 03:34:27;;;;;;;6.78;5.47;;;;;;;;;;10362331;28;20519;-60
2021/01/21 03:39:33;;;;;;;8.07;6.25;;;;;;;;;;10362735;28;20055;-61
2021/01/21 03:45:10;;;;;;;8.05;6.32;;;;;;;;;;10400246;28;20190;-61
2021/01/21 03:50:09;;;;;;;7.80;6.13;;;;;;;;;;10360753;28;20165;-59
2021/01/21 03:55:10;;;;;;;7.88;6.00;;;;;;;;;;10360951;28;20063;-57
2021/01/21 04:00:10;;;;;;;7.20;5.88;;;;;;;;;;10361591;28;20083;-60
2021/01/21 04:05:11;;;;;;;7.22;5.43;;;;;;;;;;10371304;28;20466;-60
2021/01/21 04:10:10;;;;;;;6.57;5.72;;;;;;;;;;10362663;28;20079;-60
2021/01/21 04:15:31;;;;;;;7.63;5.75;;;;;;;;;;10366102;28;20104;-60
2021/01/21 04:20:31;;;;;;;103.72;57.45;;;;;;;;;;10359672;28;20059;-59
2021/01/21 04:25:28;;;;;;;446.73;211.35;;;;;;;;;;10361125;28;20055;-59
2021/01/21 04:30:30;;;;;;;137.68;66.47;;;;;;;;;;10360379;28;20075;-60
2021/01/21 04:35:28;;;;;;;100.00;52.28;;;;;;;;;;10360391;28;20161;-60
2021/01/21 04:40:27;;;;;;;51.78;28.50;;;;;;;;;;10354585;28;20083;-61
2021/01/21 04:45:44;;;;;;;42.58;24.27;;;;;;;;;;10360067;28;20040;-61
2021/01/21 04:50:43;;;;;;;30.52;18.85;;;;;;;;;;10358684;28;20080;-59
2021/01/21 04:55:55;;;;;;;88.60;44.92;;;;;;;;;;10356772;28;20051;-60
2021/01/21 05:01:14;;;;;;;52.33;30.38;;;;;;;;;;10360812;28;20051;-59
2021/01/21 05:06:13;;;;;;;32.60;19.38;;;;;;;;;;10337455;28;20052;-60
2021/01/21 05:11:11;;;;;;;56.70;30.67;;;;;;;;;;10327706;28;20493;-60
2021/01/21 05:16:28;;;;;;;46.17;24.58;;;;;;;;;;10316454;28;20048;-60
2021/01/21 05:21:47;;;;;;;41.13;24.80;;;;;;;;;;10316495;28;20508;-60
2021/01/21 05:27:07;;;;;;;63.90;34.90;;;;;;;;;;10318262;28;20079;-61
2021/01/21 05:32:16;;;;;;;57.95;29.00;;;;;;;;;;10317248;28;20088;-61
2021/01/21 05:37:22;;;;;;;62.95;33.40;;;;;;;;;;10317068;28;20520;-61
2021/01/21 05:42:36;;;;;;;43.83;23.75;;;;;;;;;;10316832;28;20131;-60
2021/01/21 05:47:57;;;;;;;39.88;22.77;;;;;;;;;;10312874;28;20494;-60
2021/01/21 05:52:56;;;;;;;40.30;25.00;;;;;;;;;;10312187;28;20076;-60
2021/01/21 05:57:55;;;;;;;40.33;23.85;;;;;;;;;;10312059;28;20079;-61
2021/01/21 06:02:54;;;;;;;44.10;25.38;;;;;;;;;;10316921;28;20037;-61
2021/01/21 06:08:13;;;;;;;93.95;45.55;;;;;;;;;;10317601;28;20048;-60
2021/01/21 06:13:14;;;;;;;124.70;57.80;;;;;;;;;;10317599;28;20041;-61
2021/01/21 06:18:11;;;;;;;105.28;51.42;;;;;;;;;;10317262;28;20160;-61
2021/01/21 06:23:21;;;;;;;112.47;57.17;;;;;;;;;;10315744;28;20083;-61
2021/01/21 06:28:36;;;;;;;182.73;85.03;;;;;;;;;;10315347;28;20080;-59
2021/01/21 06:33:35;;;;;;;69.57;36.13;;;;;;;;;;10317289;28;20088;-61
2021/01/21 06:38:38;;;;;;;75.22;36.85;;;;;;;;;;10316495;28;20533;-61
2021/01/21 06:43:36;;;;;;;82.30;36.83;;;;;;;;;;10316495;28;20543;-61
2021/01/21 06:48:34;;;;;;;104.53;48.05;;;;;;;;;;10316813;28;20081;-61
2021/01/21 06:53:31;;;;;;;37.50;24.95;;;;;;;;;;10316697;28;20040;-60
2021/01/21 06:58:45;;;;;;;82.10;50.42;;;;;;;;;;10315201;28;20417;-60
2021/01/21 07:03:43;;;;;;;53.40;36.10;;;;;;;;;;10316562;28;20525;-61
2021/01/21 07:09:03;;;;;;;85.88;47.33;;;;;;;;;;10316326;28;20510;-60
2021/01/21 07:14:04;;;;;;;43.90;26.00;;;;;;;;;;10316522;28;20045;-61
2021/01/21 07:19:30;;;;;;;61.05;38.75;;;;;;;;;;10315949;28;20092;-60
2021/01/21 07:24:28;;;;;;;41.08;24.27;;;;;;;;;;10315180;28;20478;-60
2021/01/21 07:29:35;;;;;;;63.47;34.40;;;;;;;;;;10316212;28;20076;-61
2021/01/21 07:34:53;;;;;;;146.73;64.70;;;;;;;;;;10314973;28;20254;-60
2021/01/21 07:40:02;;;;;;;137.40;60.78;;;;;;;;;;10314943;28;20075;-61
2021/01/21 07:45:01;;;;;;;115.50;54.38;;;;;;;;;;10314923;28;20075;-61
2021/01/21 07:50:17;;;;;;;43.30;27.02;;;;;;;;;;10314704;28;20083;-62
2021/01/21 07:55:15;;;;;;;70.38;42.53;;;;;;;;;;10316713;28;20091;-62
2021/01/21 08:00:14;;;;;;;37.40;24.58;;;;;;;;;;10322387;28;20059;-61
2021/01/21 08:05:12;;;;;;;29.65;19.65;;;;;;;;;;10322006;28;20488;-61
2021/01/21 08:10:13;;;;;;;24.63;16.38;;;;;;;;;;10321613;28;20091;-60
2021/01/21 08:15:18;;;;;;;25.02;17.05;;;;;;;;;;10321864;28;20048;-59
2021/01/21 08:20:16;;;;;;;21.88;15.25;;;;;;;;;;10321213;28;20081;-60
2021/01/21 08:25:13;;;;;;;52.25;34.10;;;;;;;;;;10322066;28;20087;-61
2021/01/21 08:30:18;;;;;;;49.20;27.38;;;;;;;;;;10320709;28;20083;-59
2021/01/21 08:35:19;;;;;;;52.92;30.08;;;;;;;;;;10320566;28;20044;-60
2021/01/21 08:40:17;;;;;;;48.15;25.65;;;;;;;;;;10320878;28;20083;-60
2021/01/21 08:45:14;;;;;;;69.47;37.78;;;;;;;;;;10320548;28;20489;-60
2021/01/21 08:50:13;;;;;;;68.47;38.35;;;;;;;;;;10319800;28;20080;-59
2021/01/21 08:55:11;;;;;;;46.00;24.40;;;;;;;;;;10319833;28;20041;-60
2021/01/21 09:00:12;;;;;;;57.63;32.70;;;;;;;;;;10319681;28;20051;-59
2021/01/21 09:05:10;;;;;;;58.38;30.65;;;;;;;;;;10319271;28;20079;-60
2021/01/21 09:10:12;;;;;;;54.03;28.63;;;;;;;;;;10318802;28;20075;-60
2021/01/21 09:15:11;;;;;;;44.55;22.65;;;;;;;;;;10318814;28;20048;-60
2021/01/21 09:20:19;;;;;;;53.55;29.33;;;;;;;;;;10319035;28;20055;-60
2021/01/21 09:25:25;;;;;;;62.30;27.67;;;;;;;;;;10318693;28;20425;-60
2021/01/21 09:30:22;;;;;;;61.72;31.05;;;;;;;;;;10318215;28;20103;-60
2021/01/21 09:35:21;;;;;;;63.10;33.53;;;;;;;;;;10318033;28;20036;-60
2021/01/21 09:40:19;;;;;;;55.08;26.20;;;;;;;;;;10316795;28;20083;-60
2021/01/21 09:45:21;;;;;;;56.83;26.77;;;;;;;;;;10317931;28;20547;-60
2021/01/21 09:50:19;;;;;;;59.90;33.88;;;;;;;;;;10317887;28;20497;-60
2021/01/21 09:55:16;;;;;;;62.13;28.75;;;;;;;;;;10317446;28;20079;-60
2021/01/21 10:00:14;;;;;;;64.85;30.92;;;;;;;;;;10316984;28;20036;-62
2021/01/21 10:05:13;;;;;;;46.97;24.17;;;;;;;;;;10317490;28;20051;-60
2021/01/21 10:10:11;;;;;;;49.40;26.55;;;;;;;;;;10316855;28;20080;-60
2021/01/21 10:15:09;;;;;;;44.22;23.60;;;;;;;;;;10316850;28;20063;-60
2021/01/21 10:20:08;;;;;;;51.65;30.85;;;;;;;;;;10316057;28;20052;-60
2021/01/21 10:25:08;;;;;;;93.20;53.65;;;;;;;;;;10316462;28;20513;-60
2021/01/21 10:30:06;;;;;;;109.50;66.30;;;;;;;;;;10316215;28;20090;-60
2021/01/21 10:35:04;;;;;;;79.18;44.10;;;;;;;;;;10316267;28;20049;-60
2021/01/21 10:40:01;;;;;;;110.60;66.35;;;;;;;;;;10314810;28;20075;-60
2021/01/21 10:44:59;;;;;;;81.40;45.03;;;;;;;;;;10316004;28;20528;-61
2021/01/21 10:49:57;;;;;;;75.80;37.65;;;;;;;;;;10315815;28;20087;-61
2021/01/21 10:54:55;;;;;;;47.47;32.38;;;;;;;;;;10316020;28;20048;-60
2021/01/21 10:59:52;;;;;;;131.10;76.78;;;;;;;;;;10316532;28;20505;-60
2021/01/21 11:04:51;;;;;;;68.63;45.42;;;;;;;;;;10316368;28;20048;-60
2021/01/21 11:09:48;;;;;;;37.10;24.23;;;;;;;;;;10316077;28;20087;-60
2021/01/21 11:14:48;;;;;;;31.35;21.88;;;;;;;;;;10315556;28;20075;-60
2021/01/21 11:19:45;;;;;;;45.75;28.90;;;;;;;;;;10315682;28;20146;-60
2021/01/21 11:24:44;;;;;;;33.80;20.58;;;;;;;;;;10314875;28;20037;-60
2021/01/21 11:29:41;;;;;;;29.02;16.35;;;;;;;;;;10316729;28;20107;-60
2021/01/21 11:34:38;;;;;;;59.75;35.00;;;;;;;;;;10325664;28;20457;-60
2021/01/21 11:39:36;;;;;;;32.58;21.40;;;;;;;;;;10322636;28;20043;-61
2021/01/21 11:44:34;;;;;;;29.25;18.65;;;;;;;;;;10322278;28;20036;-62
2021/01/21 11:49:31;;;;;;;19.38;13.55;;;;;;;;;;10322307;28;20075;-60
2021/01/21 11:54:28;;;;;;;15.00;12.23;;;;;;;;;;10322621;28;20080;-60
2021/01/21 11:59:26;;;;;;;33.08;22.23;;;;;;;;;;10320413;28;20051;-60
2021/01/21 12:04:24;;;;;;;70.15;45.40;;;;;;;;;;10322661;28;20041;-60
2021/01/21 12:09:21;;;;;;;36.55;26.02;;;;;;;;;;10322589;28;20060;-60
2021/01/21 12:14:19;;;;;;;30.60;22.42;;;;;;;;;;10321514;28;20083;-60
2021/01/21 12:19:17;;;;;;;16.33;10.65;;;;;;;;;;10321721;28;20068;-61
2021/01/21 12:24:15;;;;;;;51.13;30.10;;;;;;;;;;10322116;28;20466;-61
2021/01/21 12:29:12;;;;;;;62.42;29.98;;;;;;;;;;10320709;28;20532;-61
2021/01/21 12:34:09;;;;;;;32.30;23.35;;;;;;;;;;10321485;28;20072;-60
2021/01/21 12:39:07;;;;;;;40.90;26.23;;;;;;;;;;10321598;28;20071;-61
2021/01/21 12:44:06;;;;;;;50.17;33.97;;;;;;;;;;10320442;28;20056;-61
2021/01/21 12:49:03;;;;;;;44.30;28.20;;;;;;;;;;10320952;28;20044;-61
2021/01/21 12:54:01;;;;;;;45.90;29.80;;;;;;;;;;10320725;28;20076;-61
2021/01/21 12:58:58;;;;;;;84.22;55.80;;;;;;;;;;10320380;28;20106;-61
2021/01/21 13:03:57;;;;;;;65.95;41.20;;;;;;;;;;10319376;28;20041;-60
2021/01/21 13:08:55;;;;;;;90.30;55.20;;;;;;;;;;10320277;28;20064;-61
2021/01/21 13:13:52;;;;;;;80.40;48.83;;;;;;;;;;10319832;28;20076;-61
2021/01/21 13:18:50;;;;;;;137.07;88.22;;;;;;;;;;10318774;28;20084;-61
2021/01/21 13:23:48;;;;;;;107.78;70.13;;;;;;;;;;10319544;28;20053;-61
2021/01/21 13:28:46;;;;;;;101.50;66.95;;;;;;;;;;10319109;28;20048;-61
2021/01/21 13:33:43;;;;;;;79.63;53.63;;;;;;;;;;10318131;28;20089;-61
2021/01/21 13:38:40;;;;;;;91.63;62.15;;;;;;;;;;10318861;28;20045;-61
2021/01/21 13:43:39;;;;;;;109.15;72.28;;;;;;;;;;10318748;28;20040;-60
2021/01/21 13:48:36;;;;;;;104.07;68.80;;;;;;;;;;10318455;28;20051;-61
2021/01/21 13:53:33;;;;;;;78.43;50.03;;;;;;;;;;10318174;28;20075;-61
2021/01/21 13:58:31;;;;;;;81.18;53.40;;;;;;;;;;10317033;28;20079;-61
2021/01/21 14:03:29;;;;;;;152.10;96.57;;;;;;;;;;10317972;28;20048;-61
2021/01/21 14:08:27;;;;;;;130.60;72.40;;;;;;;;;;10318301;28;20072;-61
2021/01/21 14:13:25;;;;;;;128.23;75.28;;;;;;;;;;10317630;28;20079;-60
2021/01/21 14:18:22;;;;;;;207.50;126.78;;;;;;;;;;10317142;28;20414;-60
2021/01/21 14:23:21;;;;;;;329.00;182.05;;;;;;;;;;10315532;28;20057;-60
2021/01/21 14:28:19;;;;;;;540.05;324.15;;;;;;;;;;10317140;28;20565;-60
2021/01/21 14:33:16;;;;;;;354.13;203.35;;;;;;;;;;10317047;28;20079;-61
2021/01/21 14:38:13;;;;;;;132.80;74.68;;;;;;;;;;10317155;28;20490;-60
2021/01/21 14:43:12;;;;;;;387.08;173.02;;;;;;;;;;10317045;28;20446;-60
2021/01/21 14:48:09;;;;;;;201.23;100.03;;;;;;;;;;10316834;28;20517;-60
2021/01/21 14:53:08;;;;;;;114.65;61.80;;;;;;;;;;10316617;28;20450;-60
2021/01/21 14:58:05;;;;;;;109.05;67.88;;;;;;;;;;10316503;28;20040;-60
2021/01/21 15:03:03;;;;;;;84.85;47.15;;;;;;;;;;10316554;28;20049;-60
2021/01/21 15:08:02;;;;;;;96.93;53.65;;;;;;;;;;10323911;28;20064;-61
2021/01/21 15:12:59;;;;;;;79.82;44.63;;;;;;;;;;10324763;28;20076;-61
2021/01/21 15:17:56;;;;;;;66.30;37.08;;;;;;;;;;10323883;28;20056;-60
2021/01/21 15:22:55;;;;;;;92.90;56.00;;;;;;;;;;10324088;28;20537;-61
2021/01/21 15:27:52;;;;;;;38.72;23.98;;;;;;;;;;10323784;28;20043;-60
2021/01/21 15:32:49;;;;;;;41.03;24.90;;;;;;;;;;10323633;28;20083;-61
2021/01/21 15:37:47;;;;;;;51.63;29.00;;;;;;;;;;10323407;28;20044;-60
2021/01/21 15:42:45;;;;;;;41.22;25.15;;;;;;;;;;10322430;28;20068;-60
2021/01/21 15:47:42;;;;;;;37.28;23.42;;;;;;;;;;10323112;28;20095;-60
2021/01/21 15:52:40;;;;;;;67.07;40.50;;;;;;;;;;10322613;28;20087;-60
2021/01/21 15:57:37;;;;;;;93.13;57.70;;;;;;;;;;10319212;28;20071;-60
2021/01/21 16:02:36;;;;;;;116.00;74.95;;;;;;;;;;10317586;28;20078;-60
2021/01/21 16:07:33;;;;;;;81.75;53.45;;;;;;;;;;10318918;28;20079;-60
2021/01/21 16:12:32;;;;;;;73.80;48.95;;;;;;;;;;10319964;28;20083;-61
2021/01/21 16:17:29;;;;;;;53.70;36.65;;;;;;;;;;10335111;28;20103;-60
2021/01/21 16:22:28;;;;;;;21.65;16.02;;;;;;;;;;10336751;28;20060;-61
2021/01/21 16:27:25;;;;;;;50.15;32.42;;;;;;;;;;10339360;28;20067;-60
2021/01/21 16:32:22;;;;;;;47.47;33.05;;;;;;;;;;10355895;28;20075;-60
2021/01/21 16:37:20;;;;;;;38.78;28.95;;;;;;;;;;10357945;28;20068;-60
2021/01/21 16:42:20;;;;;;;23.58;17.00;;;;;;;;;;10349321;28;20122;-60
2021/01/21 16:47:18;;;;;;;324.30;148.68;;;;;;;;;;10337821;28;20074;-61
2021/01/21 16:52:15;;;;;;;62.13;37.63;;;;;;;;;;10340751;28;20091;-61
2021/01/21 16:57:13;;;;;;;187.02;43.60;;;;;;;;;;10344318;28;20070;-60
2021/01/21 17:02:11;;;;;;;44.83;24.45;;;;;;;;;;10344854;28;20040;-59
2021/01/21 17:07:09;;;;;;;127.80;55.47;;;;;;;;;;10342262;28;20492;-60
2021/01/21 17:12:06;;;;;;;137.65;66.80;;;;;;;;;;10341352;28;20079;-60
2021/01/21 17:17:04;;;;;;;48.65;28.17;;;;;;;;;;10331986;28;20079;-60
2021/01/21 17:22:02;;;;;;;71.40;39.47;;;;;;;;;;10346458;28;20059;-61
2021/01/21 17:27:00;;;;;;;52.65;31.10;;;;;;;;;;10357773;28;20044;-59
2021/01/21 17:31:57;;;;;;;77.05;40.97;;;;;;;;;;10324570;28;20076;-60
2021/01/21 17:36:55;;;;;;;50.72;32.03;;;;;;;;;;10329382;28;20079;-59
2021/01/21 17:41:53;;;;;;;53.97;31.50;;;;;;;;;;10338999;28;20040;-60
2021/01/21 17:46:51;;;;;;;84.97;49.53;;;;;;;;;;10329559;28;20068;-59
2021/01/21 17:51:49;;;;;;;80.25;44.50;;;;;;;;;;10333249;28;20076;-60
2021/01/21 17:56:46;;;;;;;65.80;38.92;;;;;;;;;;10335239;28;20075;-59
2021/01/21 18:01:44;;;;;;;70.70;38.63;;;;;;;;;;10336165;28;20071;-61
2021/01/21 18:06:42;;;;;;;85.53;43.50;;;;;;;;;;10329019;28;20071;-60
2021/01/21 18:11:39;;;;;;;99.18;49.75;;;;;;;;;;10333807;28;20083;-60
2021/01/21 18:16:36;;;;;;;94.05;43.05;;;;;;;;;;10330952;28;20107;-60
2021/01/21 18:21:34;;;;;;;45.80;29.13;;;;;;;;;;10332292;28;20075;-61
2021/01/21 18:26:32;;;;;;;97.47;53.92;;;;;;;;;;10329461;28;20063;-61
2021/01/21 18:31:31;;;;;;;100.90;51.53;;;;;;;;;;10329163;28;20079;-58
2021/01/21 18:36:28;;;;;;;125.43;59.17;;;;;;;;;;10335048;28;20066;-58
2021/01/21 18:41:27;;;;;;;121.40;56.83;;;;;;;;;;10333430;28;20088;-60
2021/01/21 18:46:26;;;;;;;105.63;54.83;;;;;;;;;;10333614;28;20076;-60
2021/01/21 18:51:27;;;;;;;73.47;41.25;;;;;;;;;;10325775;28;20071;-59
2021/01/21 18:56:25;;;;;;;72.35;38.88;;;;;;;;;;10333074;28;20187;-58
2021/01/21 19:01:23;;;;;;;72.30;43.33;;;;;;;;;;10328645;28;20064;-60
2021/01/21 19:06:21;;;;;;;150.45;86.75;;;;;;;;;;10326116;28;20674;-59
2021/01/21 19:11:20;;;;;;;348.05;179.98;;;;;;;;;;10319727;28;20131;-60
2021/01/21 19:16:18;;;;;;;264.77;135.15;;;;;;;;;;10332396;28;20478;-59
2021/01/21 19:21:17;;;;;;;368.60;157.45;;;;;;;;;;10317135;28;20111;-59
2021/01/21 19:26:14;;;;;;;377.85;177.60;;;;;;;;;;10323125;28;20060;-61
2021/01/21 19:31:11;;;;;;;351.95;179.73;;;;;;;;;;10329475;28;20075;-61
2021/01/21 19:36:09;;;;;;;267.20;134.85;;;;;;;;;;10330904;28;20083;-61
2021/01/21 19:41:09;;;;;;;171.57;88.82;;;;;;;;;;10332804;28;20064;-61
2021/01/21 19:46:06;;;;;;;126.05;66.50;;;;;;;;;;10333035;28;20069;-61
2021/01/21 19:51:04;;;;;;;105.63;58.63;;;;;;;;;;10336306;28;20072;-61
2021/01/21 19:56:03;;;;;;;126.65;66.85;;;;;;;;;;10339479;28;20075;-59
2021/01/21 20:01:02;;;;;;;94.38;53.17;;;;;;;;;;10339155;28;20066;-61
2021/01/21 20:06:03;;;;;;;83.05;48.72;;;;;;;;;;10340905;28;20048;-61
2021/01/21 20:11:01;;;;;;;61.33;36.35;;;;;;;;;;10338931;28;20082;-61
2021/01/21 20:15:58;;;;;;;66.45;38.65;;;;;;;;;;10340012;28;20071;-60
2021/01/21 20:20:56;;;;;;;58.80;35.15;;;;;;;;;;10338618;28;20462;-60
2021/01/21 20:25:55;;;;;;;55.67;28.25;;;;;;;;;;10339590;28;20504;-61
2021/01/21 20:30:52;;;;;;;42.63;24.30;;;;;;;;;;10339244;28;20472;-60
2021/01/21 20:35:50;;;;;;;46.28;24.63;;;;;;;;;;10339846;28;20133;-61
2021/01/21 20:40:48;;;;;;;47.25;24.80;;;;;;;;;;10338443;28;20072;-61
2021/01/21 20:45:45;;;;;;;36.00;21.60;;;;;;;;;;10339684;28;20067;-61
2021/01/21 20:50:44;;;;;;;43.45;24.35;;;;;;;;;;10337275;28;20481;-61
2021/01/21 20:55:42;;;;;;;45.53;26.42;;;;;;;;;;10337190;28;20060;-61
2021/01/21 21:00:40;;;;;;;64.03;34.95;;;;;;;;;;10337493;28;20048;-61
2021/01/21 21:05:38;;;;;;;103.72;62.58;;;;;;;;;;10336412;28;20072;-61
2021/01/21 21:10:37;;;;;;;61.92;35.70;;;;;;;;;;10338125;28;20079;-60
2021/01/21 21:15:34;;;;;;;49.22;26.92;;;;;;;;;;10337016;28;20094;-59
2021/01/21 21:20:32;;;;;;;51.10;29.55;;;;;;;;;;10335368;28;20083;-58
2021/01/21 21:25:31;;;;;;;62.38;33.42;;;;;;;;;;10337278;28;20073;-60
2021/01/21 21:30:29;;;;;;;45.63;25.88;;;;;;;;;;10335795;28;20063;-60
2021/01/21 21:35:26;;;;;;;70.30;35.78;;;;;;;;;;10337069;28;20075;-59
2021/01/21 21:40:24;;;;;;;80.28;35.60;;;;;;;;;;10337153;28;20067;-60
2021/01/21 21:45:22;;;;;;;116.70;49.22;;;;;;;;;;10335056;28;20450;-59
2021/01/21 21:50:19;;;;;;;92.65;43.75;;;;;;;;;;10333483;28;20141;-60
2021/01/21 21:55:17;;;;;;;63.70;34.17;;;;;;;;;;10336840;28;20068;-60
2021/01/21 22:00:16;;;;;;;69.70;37.42;;;;;;;;;;10335144;28;20067;-60
2021/01/21 22:05:13;;;;;;;58.60;32.65;;;;;;;;;;10335692;28;20130;-60
2021/01/21 22:10:11;;;;;;;49.38;29.45;;;;;;;;;;10335222;28;20512;-60
2021/01/21 22:15:08;;;;;;;63.35;30.55;;;;;;;;;;10333744;28;20521;-60
2021/01/21 22:20:07;;;;;;;43.15;26.00;;;;;;;;;;10335576;28;20079;-60
2021/01/21 22:25:05;;;;;;;92.95;41.50;;;;;;;;;;10333836;28;20068;-60
2021/01/21 22:30:03;;;;;;;86.72;42.38;;;;;;;;;;10335633;28;20091;-60
2021/01/21 22:35:01;;;;;;;85.22;44.33;;;;;;;;;;10333511;28;20067;-60
2021/01/21 22:40:00;;;;;;;75.45;36.63;;;;;;;;;;10333443;28;20068;-59
2021/01/21 22:44:58;;;;;;;58.78;31.25;;;;;;;;;;10335100;28;20076;-60
2021/01/21 22:49:55;;;;;;;96.60;49.83;;;;;;;;;;10333310;28;20075;-61
2021/01/21 22:54:53;;;;;;;53.30;28.52;;;;;;;;;;10334511;28;20072;-61
2021/01/21 22:59:51;;;;;;;57.67;29.38;;;;;;;;;;10334064;28;20071;-61
2021/01/21 23:04:49;;;;;;;38.90;21.90;;;;;;;;;;10334271;28;20080;-61
2021/01/21 23:09:46;;;;;;;43.05;25.67;;;;;;;;;;10334363;28;20068;-61
2021/01/21 23:14:43;;;;;;;31.85;19.13;;;;;;;;;;10332643;28;20119;-61
2021/01/21 23:19:42;;;;;;;17.85;12.48;;;;;;;;;;10332636;28;20083;-61
2021/01/21 23:24:39;;;;;;;21.38;12.63;;;;;;;;;;10334340;28;20072;-60
2021/01/21 23:29:37;;;;;;;40.80;22.55;;;;;;;;;;10340597;28;20063;-60
2021/01/21 23:34:34;;;;;;;17.67;13.13;;;;;;;;;;10341354;28;20072;-61
2021/01/21 23:39:33;;;;;;;13.90;9.65;;;;;;;;;;10341415;28;20067;-60
2021/01/21 23:44:31;;;;;;;11.88;8.70;;;;;;;;;;10341202;28;20072;-61
2021/01/21 23:49:29;;;;;;;12.38;9.18;;;;;;;;;;10341447;28;20067;-60
2021/01/21 23:54:26;;;;;;;11.27;8.77;;;;;;;;;;10340780;28;20056;-61
2021/01/21 23:59:24;;;;;;;10.90;8.65;;;;;;;;;;10342480;28;20067;-60
